Time;durP1;ratioP1;P1;durP2;ratioP2;P2;SDS_P1;SDS_P2;PMS_P1;PMS_P2;Temp;Humidity;BMP_temperature;BMP_pressure;BME280_temperature;BME280_humidity;BME280_pressure;Samples;Min_cycle;Max_cycle;Signal;HPM_P1;HPM_P2
2022/09/25 00:02:05;;;;;;;;;21.50;19.00;;;;;12.39;96.78;99475.97;6277029;20;2837925;-50
2022/09/25 00:04:34;;;;;;;;;22.50;20.50;;;;;12.46;96.18;99476.41;6278884;20;2833640;-46
2022/09/25 00:07:02;;;;;;;;;18.00;17.67;;;;;12.35;97.07;99476.31;6282388;20;3573324;-48
2022/09/25 00:09:31;;;;;;;;;21.00;19.00;;;;;12.22;97.67;99470.97;6283107;20;2839945;-52
2022/09/25 00:12:00;;;;;;;;;19.00;16.50;;;;;12.32;97.15;99468.44;6283436;20;2825284;-51
2022/09/25 00:14:27;;;;;;;;;23.00;20.00;;;;;12.17;99.59;99475.81;6279177;20;2483803;-52
2022/09/25 00:16:56;;;;;;;;;22.50;21.50;;;;;12.40;97.62;99469.66;6276168;20;2833697;-51
2022/09/25 00:22:11;;;;;;;;;22.50;19.00;;;;;12.20;98.05;99476.44;6280459;20;2817145;-51
2022/09/25 00:24:39;;;;;;;;;25.00;21.50;;;;;12.04;97.76;99473.13;6276959;20;2500271;-48
2022/09/25 00:27:08;;;;;;;;;23.00;23.00;;;;;11.93;99.66;99465.84;6276440;20;2843092;-54
2022/09/25 00:29:39;;;;;;;;;25.00;23.67;;;;;11.88;100.00;99470.69;6283034;20;2848339;-50
2022/09/25 00:32:11;;;;;;;;;25.00;22.67;;;;;11.78;100.00;99470.41;6311646;20;2846189;-46
2022/09/25 00:34:40;;;;;;;;;22.50;21.00;;;;;12.12;100.00;99467.22;6311903;20;2843088;-50
2022/09/25 00:37:08;;;;;;;;;21.00;19.00;;;;;12.15;99.43;99467.84;6278831;20;2500395;-48
2022/09/25 00:39:36;;;;;;;;;22.00;19.00;;;;;12.11;98.30;99466.31;6278597;20;2500319;-51
2022/09/25 00:42:05;;;;;;;;;23.00;22.50;;;;;12.20;97.76;99456.75;6278559;20;2839859;-47
2022/09/25 00:45:20;;;;;;;;;22.00;21.00;;;;;11.97;99.73;99458.38;6278489;20;2832659;-51
2022/09/25 00:48:03;;;;;;;;;21.00;19.00;;;;;11.71;100.00;99441.38;6275857;20;2492041;-47
2022/09/25 00:50:51;;;;;;;;;27.67;24.00;;;;;11.62;100.00;99449.13;6276424;20;2852441;-48
2022/09/25 00:53:39;;;;;;;;;29.00;25.00;;;;;11.60;100.00;99445.66;6307669;20;2857842;-48
2022/09/25 00:56:11;;;;;;;;;23.00;22.00;;;;;11.68;100.00;99446.97;6304954;20;2729556;-49
2022/09/25 00:58:41;;;;;;;;;30.00;26.67;;;;;11.58;100.00;99446.72;6306419;20;2852431;-48
2022/09/25 01:01:10;;;;;;;;;26.00;26.00;;;;;11.62;100.00;99448.25;6309779;20;3594072;-48
2022/09/25 01:03:43;;;;;;;;;27.00;27.00;;;;;11.68;100.00;99447.81;6277356;20;2848334;-51
2022/09/25 01:06:13;;;;;;;;;11.00;9.00;;;;;11.62;100.00;99438.34;6309851;20;2788816;-48
2022/09/25 01:08:44;;;;;;;;;40.00;34.00;;;;;11.54;100.00;99440.72;6281056;20;3608708;-48
2022/09/25 01:11:16;;;;;;;;;35.00;33.67;;;;;11.70;100.00;99447.72;6311060;20;2858676;-51
2022/09/25 01:13:45;;;;;;;;;38.00;34.00;;;;;11.53;100.00;99439.00;6312392;20;3607678;-46
2022/09/25 01:16:59;;;;;;;;;30.33;30.33;;;;;11.57;100.00;99439.66;6280133;20;3584669;-47
2022/09/25 01:20:44;;;;;;;;;35.50;34.00;;;;;11.57;100.00;99437.81;6273923;20;2860482;-52
2022/09/25 01:24:21;;;;;;;;;38.67;34.33;;;;;11.67;100.00;99442.56;6271456;20;3619120;-48
2022/09/25 01:27:31;;;;;;;;;40.67;34.00;;;;;11.52;100.00;99439.97;6303665;20;3610715;-51
2022/09/25 01:30:05;;;;;;;;;47.67;35.00;;;;;11.53;100.00;99444.41;6281340;20;3621109;-51
2022/09/25 01:33:09;;;;;;;;;44.00;36.67;;;;;11.56;100.00;99438.78;6278957;20;3597382;-49
2022/09/25 01:36:10;;;;;;;;;43.33;35.33;;;;;11.51;100.00;99440.94;6273058;20;3618039;-48
2022/09/25 01:39:24;;;;;;;;;39.67;34.33;;;;;11.63;100.00;99445.44;6312435;20;3608585;-50
2022/09/25 01:42:07;;;;;;;;;40.00;33.00;;;;;11.96;100.00;99445.91;6275807;20;3616961;-48
2022/09/25 01:44:55;;;;;;;;;35.67;32.00;;;;;11.71;100.00;99444.06;6278189;20;3593974;-48
2022/09/25 01:47:29;;;;;;;;;35.00;33.00;;;;;11.54;100.00;99437.19;6279452;20;3606581;-47
2022/09/25 01:50:12;;;;;;;;;38.00;34.00;;;;;11.45;100.00;99435.97;6273845;20;3608045;-48
2022/09/25 01:52:53;;;;;;;;;53.50;44.50;;;;;11.85;100.00;99433.19;6305912;20;2846518;-51
2022/09/25 01:55:52;;;;;;;;;41.33;34.67;;;;;11.72;100.00;99429.66;6278702;20;3614982;-52
2022/09/25 01:58:47;;;;;;;;;36.33;30.67;;;;;11.83;100.00;99440.50;6273769;20;3602576;-51
2022/09/25 02:01:26;;;;;;;;;54.00;40.33;;;;;11.69;100.00;99429.84;6271051;20;3622158;-51
2022/09/25 02:04:21;;;;;;;;;60.00;48.67;;;;;11.88;100.00;99438.38;6305616;20;3612773;-47
2022/09/25 02:06:54;;;;;;;;;30.00;29.67;;;;;11.86;100.00;99440.31;6309808;20;3598189;-48
2022/09/25 02:09:41;;;;;;;;;33.67;30.33;;;;;11.86;100.00;99434.94;6280387;20;3593014;-46
2022/09/25 02:12:27;;;;;;;;;27.67;25.33;;;;;11.60;100.00;99439.44;6312046;20;3589888;-55
2022/09/25 02:15:11;;;;;;;;;23.50;22.00;;;;;11.70;100.00;99439.66;6273881;20;2841950;-47
2022/09/25 02:21:09;;;;;;;;;102.67;91.67;;;;;11.36;100.00;99425.88;6271752;20;3685697;-51
2022/09/25 02:23:56;;;;;;;;;72.67;56.00;;;;;11.51;100.00;99419.44;6277346;20;3649210;-48
2022/09/25 02:26:32;;;;;;;;;43.00;36.00;;;;;11.43;100.00;99429.88;6273911;20;2865133;-48
2022/09/25 02:29:02;;;;;;;;;35.00;32.00;;;;;11.21;100.00;99430.47;6306071;20;3589988;-51
2022/09/25 02:31:47;;;;;;;;;28.00;25.00;;;;;11.51;100.00;99429.34;6275053;20;3604439;-47
2022/09/25 02:34:16;;;;;;;;;31.33;27.33;;;;;11.54;100.00;99429.97;6307008;20;3607547;-47
2022/09/25 02:36:46;;;;;;;;;80.67;69.00;;;;;11.72;100.00;99437.72;6274049;20;3644113;-48
2022/09/25 02:39:21;;;;;;;;;55.00;47.00;;;;;11.48;100.00;99434.91;6313686;20;3589903;-51
2022/09/25 02:42:13;;;;;;;;;48.00;38.50;;;;;11.73;100.00;99423.31;6274617;20;2858581;-51
2022/09/25 02:45:23;;;;;;;;;41.33;37.33;;;;;11.45;100.00;99435.97;6272100;20;2862910;-49
2022/09/25 02:48:31;;;;;;;;;42.67;38.00;;;;;11.59;100.00;99438.56;6308724;20;3609637;-49
2022/09/25 02:51:34;;;;;;;;;48.00;41.50;;;;;11.55;100.00;99431.69;6275977;20;2848223;-49
2022/09/25 02:54:56;;;;;;;;;61.33;49.67;;;;;11.46;100.00;99428.78;6269883;20;2859889;-48
2022/09/25 02:57:51;;;;;;;;;54.33;43.00;;;;;11.39;100.00;99431.03;6302277;20;3604573;-52
2022/09/25 03:00:22;;;;;;;;;51.67;43.33;;;;;11.62;100.00;99427.59;6310857;20;3598153;-52
2022/09/25 03:02:58;;;;;;;;;36.00;34.00;;;;;11.44;100.00;99436.94;6281970;20;3609168;-52
2022/09/25 03:05:27;;;;;;;;;5.25;5.25;;;;;11.15;100.00;99437.13;6294901;20;1805514;-48
2022/09/25 03:10:45;;;;;;;;;28.00;26.33;;;;;11.26;100.00;99438.22;6282392;20;3605315;-49
2022/09/25 03:13:26;;;;;;;;;40.67;34.33;;;;;10.87;100.00;99430.03;6279970;20;3612786;-50
2022/09/25 03:16:03;;;;;;;;;51.00;43.00;;;;;10.93;100.00;99426.13;6314071;20;2857586;-52
2022/09/25 03:18:32;;;;;;;;;40.50;36.50;;;;;10.85;100.00;99425.75;6307372;20;2858607;-51
2022/09/25 03:21:03;;;;;;;;;36.33;34.00;;;;;10.94;100.00;99419.78;6283253;20;3602842;-53
2022/09/25 03:23:32;;;;;;;;;35.00;32.33;;;;;10.69;100.00;99412.47;6279806;20;2852451;-53
2022/09/25 03:26:03;;;;;;;;;30.67;29.67;;;;;10.83;100.00;99404.38;6314147;20;3581491;-46
2022/09/25 03:28:34;;;;;;;;;31.00;30.33;;;;;10.84;100.00;99413.28;6277213;20;2846167;-50
2022/09/25 03:31:09;;;;;;;;;29.33;27.33;;;;;10.67;100.00;99417.97;6316227;20;3595160;-49
2022/09/25 03:33:42;;;;;;;;;36.00;32.00;;;;;10.59;100.00;99414.94;6277529;20;2850416;-47
2022/09/25 03:36:19;;;;;;;;;32.33;31.33;;;;;10.45;100.00;99414.97;6314204;20;3578348;-48
2022/09/25 03:38:52;;;;;;;;;31.33;27.67;;;;;10.90;100.00;99407.50;6283399;20;3588811;-47
2022/09/25 03:41:22;;;;;;;;;31.33;30.67;;;;;10.73;100.00;99411.31;6278420;20;2850388;-48
2022/09/25 03:43:52;;;;;;;;;31.00;31.00;;;;;10.70;100.00;99407.00;6314435;20;3599182;-46
2022/09/25 03:46:29;;;;;;;;;37.67;34.00;;;;;10.59;100.00;99409.56;6280829;20;3615247;-49
2022/09/25 03:48:59;;;;;;;;;34.67;33.00;;;;;10.50;100.00;99399.41;6312762;20;3588801;-48
2022/09/25 03:51:32;;;;;;;;;33.67;30.00;;;;;10.92;100.00;99394.81;6277615;20;3587887;-48
2022/09/25 03:54:02;;;;;;;;;35.00;33.00;;;;;10.77;100.00;99413.72;6314187;20;3594001;-49
2022/09/25 03:56:33;;;;;;;;;30.00;29.00;;;;;10.79;100.00;99412.72;6279996;20;2849283;-61
2022/09/25 03:59:02;;;;;;;;;26.00;26.00;;;;;10.83;100.00;99411.59;6308097;20;2846113;-60
2022/09/25 04:01:31;;;;;;;;;28.00;28.00;;;;;10.83;100.00;99415.13;6315111;20;3584750;-60
2022/09/25 04:04:01;;;;;;;;;31.00;28.00;;;;;10.80;100.00;99411.78;6277844;20;2841912;-60
2022/09/25 04:06:31;;;;;;;;;38.67;33.00;;;;;10.82;100.00;99426.84;6278170;20;2857130;-60
2022/09/25 04:09:00;;;;;;;;;32.00;32.00;;;;;10.89;100.00;99425.44;6313996;20;3599385;-60
2022/09/25 04:11:30;;;;;;;;;40.67;33.00;;;;;10.96;100.00;99428.59;6280346;20;3623158;-61
2022/09/25 04:13:59;;;;;;;;;34.67;33.00;;;;;10.89;100.00;99417.38;6311568;20;3589845;-60
2022/09/25 04:16:29;;;;;;;;;40.00;34.67;;;;;10.91;100.00;99420.84;6282463;20;3616652;-60
2022/09/25 04:18:58;;;;;;;;;36.67;32.67;;;;;11.23;100.00;99419.63;6282027;20;2857763;-61
2022/09/25 04:21:27;;;;;;;;;40.33;34.00;;;;;11.26;100.00;99419.41;6312102;20;3607571;-60
2022/09/25 04:26:45;;;;;;;;;39.33;36.00;;;;;11.09;100.00;99429.47;6277256;20;2860911;-60
2022/09/25 04:29:14;;;;;;;;;48.00;42.00;;;;;11.00;100.00;99416.66;6309733;20;2857612;-61
2022/09/25 04:33:44;;;;;;;;;56.33;44.00;;;;;10.98;100.00;99421.28;6278904;20;2869181;-60
2022/09/25 04:34:33;;;;;;;;;48.33;38.67;;;;;11.02;100.00;99416.56;6312224;20;3621257;-60
2022/09/25 04:37:02;;;;;;;;;52.00;41.00;;;;;11.08;100.00;99422.38;6311421;20;3606624;-60
2022/09/25 04:39:32;;;;;;;;;48.00;41.00;;;;;11.01;100.00;99410.34;6281332;20;2856575;-61
2022/09/25 04:42:01;;;;;;;;;46.33;40.67;;;;;10.87;100.00;99408.56;6309122;20;2856739;-60
2022/09/25 04:44:30;;;;;;;;;48.00;39.00;;;;;10.85;100.00;99417.69;6307608;20;2857542;-60
2022/09/25 04:46:59;;;;;;;;;45.33;37.33;;;;;10.98;100.00;99415.91;6277752;20;2862811;-60
2022/09/25 04:49:28;;;;;;;;;45.33;37.67;;;;;11.28;100.00;99406.72;6314757;20;3605474;-60
2022/09/25 04:51:57;;;;;;;;;47.50;38.50;;;;;11.37;100.00;99406.06;6280567;20;2847187;-60
2022/09/25 04:54:26;;;;;;;;;49.00;37.67;;;;;11.46;100.00;99402.75;6280065;20;3615981;-60
2022/09/25 04:56:54;;;;;;;;;38.00;35.00;;;;;11.39;100.00;99398.78;6316323;20;2533791;-60
2022/09/25 04:59:23;;;;;;;;;36.00;32.00;;;;;11.41;100.00;99399.53;6311412;20;3602328;-60
2022/09/25 05:01:52;;;;;;;;;38.67;32.33;;;;;11.19;100.00;99403.72;6273615;20;2873543;-60
2022/09/25 05:04:21;;;;;;;;;41.50;32.50;;;;;11.29;100.00;99409.28;6313799;20;3475239;-60
2022/09/25 05:06:50;;;;;;;;;38.00;33.67;;;;;11.49;100.00;99409.75;6312646;20;3599231;-60
2022/09/25 05:09:19;;;;;;;;;43.33;36.67;;;;;11.32;100.00;99402.84;6278509;20;2860740;-60
2022/09/25 05:11:49;;;;;;;;;47.33;37.33;;;;;11.32;100.00;99413.59;6310825;20;2870219;-60
2022/09/25 05:14:18;;;;;;;;;49.00;37.33;;;;;11.30;100.00;99404.81;6307742;20;3620062;-45
2022/09/25 05:16:47;;;;;;;;;49.00;37.67;;;;;11.47;100.00;99401.78;6310326;20;3622270;-45
2022/09/25 05:19:16;;;;;;;;;46.00;36.33;;;;;11.69;100.00;99406.53;6280545;20;3609809;-46
2022/09/25 05:21:45;;;;;;;;;58.00;45.67;;;;;11.74;100.00;99408.88;6278736;20;3624634;-45
2022/09/25 05:24:15;;;;;;;;;58.67;44.00;;;;;11.75;100.00;99411.47;6305910;20;3632605;-43
2022/09/25 05:26:44;;;;;;;;;55.67;44.33;;;;;11.71;100.00;99407.25;6308895;20;3608718;-46
2022/09/25 05:29:14;;;;;;;;;50.00;39.00;;;;;11.63;100.00;99413.16;6309447;20;3612779;-44
2022/09/25 05:31:46;;;;;;;;;48.00;38.00;;;;;11.89;100.00;99420.41;6306350;20;3620192;-44
2022/09/25 05:34:15;;;;;;;;;36.67;34.00;;;;;12.05;100.00;99429.97;6311741;20;3601522;-43
2022/09/25 05:36:44;;;;;;;;;34.67;30.33;;;;;12.02;100.00;99430.19;6279162;20;3598285;-47
2022/09/25 05:39:13;;;;;;;;;34.67;32.00;;;;;11.89;100.00;99421.28;6282055;20;3598285;-43
2022/09/25 05:41:42;;;;;;;;;32.00;30.00;;;;;12.06;100.00;99431.69;6275935;20;3574220;-43
2022/09/25 05:44:11;;;;;;;;;34.00;33.00;;;;;11.89;100.00;99423.97;6272191;20;3605489;-45
2022/09/25 05:46:41;;;;;;;;;32.00;29.33;;;;;12.10;100.00;99431.47;6308481;20;3579621;-44
2022/09/25 05:49:10;;;;;;;;;36.00;34.00;;;;;12.22;100.00;99442.22;6278304;20;2857691;-51
2022/09/25 05:51:40;;;;;;;;;51.67;43.00;;;;;12.19;100.00;99430.78;6306821;20;2848253;-46
2022/09/25 05:54:08;;;;;;;;;44.33;38.00;;;;;12.08;100.00;99445.03;6308777;20;3583651;-46
2022/09/25 05:56:38;;;;;;;;;42.67;38.00;;;;;11.95;100.00;99444.19;6272962;20;2864929;-44
2022/09/25 05:59:07;;;;;;;;;52.00;41.67;;;;;11.88;100.00;99443.78;6308804;20;2860316;-44
2022/09/25 06:01:36;;;;;;;;;46.67;39.33;;;;;12.12;100.00;99443.00;6312529;20;3599231;-44
2022/09/25 06:04:04;;;;;;;;;47.00;38.50;;;;;12.23;100.00;99446.63;6275683;20;2865964;-47
2022/09/25 06:06:34;;;;;;;;;52.00;43.00;;;;;12.19;100.00;99447.81;6276759;20;2870272;-44
2022/09/25 06:09:03;;;;;;;;;45.00;37.33;;;;;12.21;100.00;99445.00;6313111;20;3596104;-50
2022/09/25 06:11:32;;;;;;;;;47.00;38.00;;;;;12.14;100.00;99449.09;6277212;20;3606648;-46
2022/09/25 06:14:02;;;;;;;;;32.00;30.67;;;;;12.08;100.00;99447.72;6304605;20;3570126;-52
2022/09/25 06:16:32;;;;;;;;;28.00;27.00;;;;;12.24;100.00;99447.47;6305379;20;3600309;-48
2022/09/25 06:19:01;;;;;;;;;27.33;26.00;;;;;12.14;100.00;99447.28;6272624;20;2856174;-51
2022/09/25 06:21:31;;;;;;;;;21.00;21.00;;;;;12.32;100.00;99441.53;6307036;20;2838998;-50
2022/09/25 06:24:00;;;;;;;;;28.00;26.67;;;;;12.38;100.00;99441.09;6274291;20;3599195;-49
2022/09/25 06:26:30;;;;;;;;;30.67;28.00;;;;;12.42;100.00;99446.13;6309394;20;3601559;-49
2022/09/25 06:28:59;;;;;;;;;28.00;27.67;;;;;12.45;100.00;99443.25;6275394;20;2853705;-46
2022/09/25 06:31:31;;;;;;;;;28.00;24.33;;;;;12.53;100.00;99439.97;6312464;20;3598138;-47
2022/09/25 06:34:01;;;;;;;;;29.00;27.33;;;;;12.57;100.00;99451.38;6276592;20;2853541;-52
2022/09/25 06:36:30;;;;;;;;;26.33;26.33;;;;;12.60;100.00;99456.53;6311350;20;3606484;-48
2022/09/25 06:38:59;;;;;;;;;29.00;26.67;;;;;12.48;100.00;99448.41;6279393;20;2847353;-49
2022/09/25 06:41:28;;;;;;;;;26.67;25.67;;;;;12.73;100.00;99451.97;6305056;20;3594023;-48
2022/09/25 06:43:58;;;;;;;;;30.33;28.00;;;;;12.59;100.00;99455.69;6277537;20;2853476;-49
2022/09/25 06:46:27;;;;;;;;;29.00;26.00;;;;;12.85;100.00;99456.44;6308762;20;3598320;-47
2022/09/25 06:48:57;;;;;;;;;26.67;26.67;;;;;12.91;99.46;99460.50;6279947;20;2845132;-49
2022/09/25 06:51:30;;;;;;;;;31.33;28.00;;;;;13.06;98.57;99469.25;6304271;20;2854564;-48
2022/09/25 06:53:58;;;;;;;;;30.67;30.67;;;;;12.71;100.00;99467.38;6313389;20;3585701;-47
2022/09/25 06:56:27;;;;;;;;;29.00;27.67;;;;;12.80;100.00;99477.47;6275943;20;3580613;-50
2022/09/25 06:58:56;;;;;;;;;28.33;28.33;;;;;12.91;99.92;99469.44;6314006;20;3590989;-49
2022/09/25 07:01:24;;;;;;;;;49.00;37.00;;;;;13.09;98.68;99464.53;6277666;20;2856627;-51
2022/09/25 07:03:54;;;;;;;;;68.67;50.67;;;;;12.79;100.00;99464.97;6273609;20;3627426;-47
2022/09/25 07:06:29;;;;;;;;;441.20;306.40;;;;;12.92;100.00;99465.78;6272869;20;5331614;-49
2022/09/25 07:09:02;;;;;;;;;182.13;145.50;;;;;13.07;99.18;99461.06;6303434;20;3698746;-51
2022/09/25 07:11:32;;;;;;;;;71.00;53.75;;;;;13.21;98.87;99465.41;6277499;20;3633589;-46
2022/09/25 07:14:03;;;;;;;;;340.00;274.20;;;;;13.18;98.72;99465.66;6308007;20;4519103;-49
2022/09/25 07:16:34;;;;;;;;;125.38;106.38;;;;;13.16;99.35;99464.91;6300046;20;3717942;-48
2022/09/25 07:19:04;;;;;;;;;82.75;73.25;;;;;13.30;98.20;99462.06;6308786;20;4416905;-52
2022/09/25 07:21:33;;;;;;;;;42.00;34.00;;;;;13.39;98.19;99463.19;6310960;20;3596096;-45
2022/09/25 07:24:01;;;;;;;;;41.50;36.00;;;;;13.39;97.70;99464.03;6277202;20;2842976;-44
2022/09/25 07:26:33;;;;;;;;;46.67;37.00;;;;;13.35;98.32;99459.88;6276877;20;3624241;-54
2022/09/25 07:29:05;;;;;;;;;51.67;43.33;;;;;13.65;96.65;99453.06;6308425;20;3611808;-56
2022/09/25 07:31:36;;;;;;;;;57.67;47.67;;;;;13.57;97.37;99448.28;6309387;20;2857661;-54
2022/09/25 07:34:09;;;;;;;;;58.33;47.33;;;;;13.67;97.21;99448.44;6309385;20;3596206;-52
2022/09/25 07:36:41;;;;;;;;;51.00;43.00;;;;;13.45;97.38;99451.06;6270215;20;2854607;-54
2022/09/25 07:39:10;;;;;;;;;48.50;39.50;;;;;13.29;98.96;99454.94;6279830;20;2844024;-55
2022/09/25 07:41:46;;;;;;;;;50.50;38.50;;;;;13.32;97.58;99464.63;6278139;20;2871145;-54
2022/09/25 07:44:17;;;;;;;;;51.00;43.00;;;;;13.48;98.35;99458.91;6275401;20;2849240;-55
2022/09/25 07:47:07;;;;;;;;;42.00;36.00;;;;;13.61;97.68;99454.28;6275041;20;2675389;-57
2022/09/25 07:49:36;;;;;;;;;55.00;45.50;;;;;13.61;98.55;99465.06;6279745;20;2852438;-62
2022/09/25 07:52:05;;;;;;;;;46.00;36.00;;;;;13.55;97.88;99457.47;6276582;20;3628507;-62
2022/09/25 07:54:34;;;;;;;;;45.33;36.67;;;;;13.44;97.76;99457.44;6287746;20;3614899;-62
2022/09/25 07:57:03;;;;;;;;;42.33;35.00;;;;;13.56;98.55;99453.78;6279827;20;3602341;-62
2022/09/25 07:59:33;;;;;;;;;43.67;37.33;;;;;13.59;98.53;99461.66;6276072;20;2868156;-62
2022/09/25 08:02:02;;;;;;;;;45.33;37.33;;;;;13.67;98.12;99453.81;6317943;20;3579425;-62
2022/09/25 08:04:31;;;;;;;;;46.00;38.33;;;;;13.67;97.37;99466.47;6314139;20;3602444;-61
2022/09/25 08:07:01;;;;;;;;;45.67;39.33;;;;;13.82;96.77;99459.84;6282304;20;2854537;-61
2022/09/25 08:09:30;;;;;;;;;51.67;42.33;;;;;13.77;97.74;99460.22;6313646;20;2846091;-61
2022/09/25 08:11:59;;;;;;;;;48.00;39.00;;;;;13.81;96.26;99458.97;6308420;20;2859684;-61
2022/09/25 08:14:27;;;;;;;;;50.67;40.00;;;;;13.82;97.16;99458.03;6283349;20;3610709;-61
2022/09/25 08:16:57;;;;;;;;;57.33;45.67;;;;;13.89;95.35;99452.97;6277146;20;3613837;-61
2022/09/25 08:19:26;;;;;;;;;63.67;48.33;;;;;13.87;96.48;99449.53;6318164;20;3634682;-61
2022/09/25 08:21:55;;;;;;;;;56.33;45.67;;;;;14.17;96.54;99446.25;6284357;20;3599308;-60
2022/09/25 08:24:24;;;;;;;;;54.50;44.50;;;;;14.31;96.15;99446.97;6278462;20;2843005;-60
2022/09/25 08:26:53;;;;;;;;;48.33;41.00;;;;;14.27;95.21;99447.22;6281945;20;2848269;-61
2022/09/25 08:29:22;;;;;;;;;49.33;41.00;;;;;14.80;94.20;99449.25;6316409;20;3595068;-61
2022/09/25 08:31:52;;;;;;;;;54.33;44.33;;;;;14.47;95.00;99434.78;6281346;20;3599234;-60
2022/09/25 08:34:21;;;;;;;;;49.67;40.67;;;;;14.82;93.95;99438.28;6314677;20;3608606;-61
2022/09/25 08:37:10;;;;;;;;;42.33;35.00;;;;;14.80;93.07;99440.28;6285724;20;3617981;-61
2022/09/25 08:39:39;;;;;;;;;49.67;40.67;;;;;15.05;92.44;99439.09;6279787;20;2855730;-47
2022/09/25 08:42:28;;;;;;;;;45.67;37.33;;;;;15.27;91.80;99435.41;6315777;20;3594142;-46
2022/09/25 08:50:44;;;;;;;;;27.00;26.00;;;;;15.59;89.58;99436.22;6307544;20;3601079;-52
2022/09/25 08:53:24;;;;;;;;;27.00;26.00;;;;;15.63;89.73;99444.06;6278766;20;3602393;-53
2022/09/25 08:58:53;;;;;;;;;21.67;18.33;;;;;15.67;88.01;99430.16;6276816;20;3576369;-49
2022/09/25 09:01:45;;;;;;;;;20.00;20.00;;;;;15.88;87.25;99432.88;6275761;20;2841380;-50
2022/09/25 09:04:32;;;;;;;;;23.50;20.00;;;;;15.71;89.13;99434.31;6277940;20;2844012;-49
2022/09/25 09:07:12;;;;;;;;;21.50;17.00;;;;;15.83;86.64;99437.84;6277132;20;2832631;-48
2022/09/25 09:10:30;;;;;;;;;11.60;10.80;;;;;15.82;83.73;99440.66;6306005;20;2794167;-51
2022/09/25 09:13:23;;;;;;;;;8.00;8.00;;;;;15.85;82.47;99441.28;6283851;20;2636802;-53
2022/09/25 09:16:05;;;;;;;;;9.80;9.80;;;;;15.82;81.59;99446.06;6298073;20;2791993;-48
2022/09/25 09:18:39;;;;;;;;;10.00;10.00;;;;;15.93;81.61;99443.28;6276976;20;2780528;-52
2022/09/25 09:21:32;;;;;;;;;36.50;30.00;;;;;15.96;80.46;99452.00;6280327;20;2670150;-50
2022/09/25 09:24:57;;;;;;;;;6.00;6.00;;;;;15.85;79.75;99443.97;6310838;20;2746118;-44
2022/09/25 09:28:13;;;;;;;;;7.60;6.40;;;;;15.92;79.02;99441.56;6297215;20;2746735;-48
2022/09/25 09:31:18;;;;;;;;;11.67;11.67;;;;;16.01;78.90;99457.88;6307468;20;2792009;-47
2022/09/25 09:34:39;;;;;;;;;22.33;19.67;;;;;16.13;79.16;99452.38;6314985;20;3566949;-46
2022/09/25 09:37:43;;;;;;;;;59.33;43.67;;;;;15.86;79.13;99453.81;6280466;20;3647159;-46
2022/09/25 09:40:48;;;;;;;;;18.33;15.67;;;;;15.98;79.24;99457.28;6313794;20;3556221;-47
2022/09/25 09:43:46;;;;;;;;;12.50;11.00;;;;;16.09;79.19;99457.22;6314930;20;2788839;-46
2022/09/25 09:47:14;;;;;;;;;15.00;15.00;;;;;15.97;78.96;99464.53;6279099;20;2803010;-47
2022/09/25 09:50:05;;;;;;;;;10.00;10.00;;;;;15.94;79.86;99453.97;6312858;20;2781514;-44
2022/09/25 09:52:42;;;;;;;;;12.00;12.00;;;;;16.16;79.52;99455.66;6276802;20;2803526;-45
2022/09/25 09:55:36;;;;;;;;;7.43;6.29;;;;;16.13;78.79;99457.78;6356405;20;3449238;-49
2022/09/25 09:58:26;;;;;;;;;9.20;8.20;;;;;16.05;78.25;99463.03;6333578;20;2756638;-48
2022/09/25 10:00:56;;;;;;;;;10.20;9.60;;;;;16.28;78.59;99459.13;6331866;20;2773197;-47
2022/09/25 10:03:39;;;;;;;;;11.40;8.60;;;;;16.16;78.77;99463.78;6305989;20;2769476;-43
2022/09/25 10:06:13;;;;;;;;;7.40;7.40;;;;;16.09;78.28;99461.75;6303893;20;2735724;-44
2022/09/25 10:08:46;;;;;;;;;9.80;6.60;;;;;16.16;78.24;99458.34;6332419;20;2742065;-45
2022/09/25 10:11:17;;;;;;;;;4.00;4.00;;;;;16.30;77.80;99456.28;6275450;20;2753415;-46
2022/09/25 10:13:47;;;;;;;;;4.50;4.50;;;;;16.24;78.77;99452.25;6282200;20;2733788;-48
2022/09/25 10:16:23;;;;;;;;;7.29;7.00;;;;;16.16;78.29;99449.38;6313642;20;3451354;-47
2022/09/25 10:19:19;;;;;;;;;5.86;5.86;;;;;16.46;77.73;99452.06;6348016;20;3455637;-48
2022/09/25 10:21:59;;;;;;;;;7.60;7.00;;;;;16.19;75.99;99449.09;6328482;20;2746166;-49
2022/09/25 10:25:02;;;;;;;;;7.60;6.00;;;;;16.08;78.51;99444.63;6335159;20;2744188;-46
2022/09/25 10:27:45;;;;;;;;;4.60;4.60;;;;;15.94;79.86;99447.72;6325133;20;2747294;-46
2022/09/25 10:30:20;;;;;;;;;7.00;7.00;;;;;15.91;82.40;99446.13;6310040;20;2745082;-56
2022/09/25 10:33:00;;;;;;;;;9.40;5.20;;;;;15.84;84.21;99442.25;6300751;20;2751330;-55
2022/09/25 10:35:37;;;;;;;;;6.00;6.00;;;;;15.73;85.51;99440.47;6303615;20;2739021;-54
2022/09/25 10:38:48;;;;;;;;;6.60;6.60;;;;;15.83;86.27;99440.53;6303880;20;2748291;-54
2022/09/25 10:41:43;;;;;;;;;6.00;5.00;;;;;15.69;86.47;99443.56;6339078;20;2748281;-53
2022/09/25 10:44:35;;;;;;;;;5.86;5.00;;;;;15.89;88.77;99447.25;6352480;20;3468379;-50
2022/09/25 10:50:23;;;;;;;;;11.00;9.67;;;;;15.75;88.06;99440.34;6278753;20;2781548;-54
2022/09/25 10:52:58;;;;;;;;;19.33;15.00;;;;;15.49;89.92;99440.72;6306222;20;3554443;-54
2022/09/25 10:55:38;;;;;;;;;14.00;14.00;;;;;15.60;89.97;99431.66;6276400;20;3515034;-53
2022/09/25 10:58:44;;;;;;;;;16.00;13.00;;;;;15.59;89.96;99432.69;6310097;20;2805558;-53
2022/09/25 11:01:13;;;;;;;;;18.00;17.50;;;;;15.64;87.86;99433.13;6274672;20;2500488;-55
2022/09/25 11:03:58;;;;;;;;;11.00;11.00;;;;;15.58;90.05;99426.38;6273291;20;2792073;-53
2022/09/25 11:06:34;;;;;;;;;6.20;6.20;;;;;15.67;90.49;99432.00;6335335;20;2740937;-54
2022/09/25 11:09:18;;;;;;;;;7.00;5.00;;;;;15.47;89.04;99418.34;6313216;20;2737782;-52
2022/09/25 11:12:31;;;;;;;;;19.83;17.83;;;;;15.61;88.36;99424.41;6297956;20;2830620;-54
2022/09/25 11:15:05;;;;;;;;;36.00;30.33;;;;;15.80;88.95;99421.88;6311195;20;3614867;-50
2022/09/25 11:17:43;;;;;;;;;25.00;22.50;;;;;15.91;88.73;99419.06;6278399;20;2825301;-52
2022/09/25 11:20:28;;;;;;;;;11.00;11.00;;;;;15.84;89.02;99423.28;6280456;20;2782686;-56
2022/09/25 11:23:34;;;;;;;;;12.00;11.33;;;;;15.76;87.67;99410.41;6282943;20;2792153;-54
2022/09/25 11:26:25;;;;;;;;;32.50;29.00;;;;;15.79;89.94;99417.41;6310229;20;2849356;-53
2022/09/25 11:29:21;;;;;;;;;21.00;20.00;;;;;16.02;88.52;99418.97;6281366;20;2840920;-53
2022/09/25 11:32:28;;;;;;;;;13.00;10.00;;;;;15.87;87.68;99405.91;6286763;20;2794171;-53
2022/09/25 11:35:55;;;;;;;;;17.13;17.13;;;;;15.95;88.87;99411.50;6311090;20;3563775;-51
2022/09/25 11:42:25;;;;;;;;;8.80;7.80;;;;;16.45;89.47;99408.84;6307531;20;2748252;-54
2022/09/25 11:45:13;;;;;;;;;8.20;7.00;;;;;16.37;88.33;99409.53;6338379;20;2758653;-54
2022/09/25 11:48:22;;;;;;;;;33.67;30.00;;;;;16.66;88.29;99403.31;6282091;20;3593152;-54
2022/09/25 11:51:08;;;;;;;;;7.60;7.60;;;;;16.66;88.25;99408.75;6306401;20;2748331;-53
2022/09/25 11:54:34;;;;;;;;;6.60;6.60;;;;;16.72;85.99;99402.78;6339507;20;2748784;-42
2022/09/25 11:57:51;;;;;;;;;34.25;29.50;;;;;16.40;89.35;99408.38;6305891;20;3618048;-46
2022/09/25 12:00:59;;;;;;;;;2.00;2.00;;;;;16.44;87.76;99409.84;6316726;20;2753408;-48
2022/09/25 12:03:56;;;;;;;;;8.00;8.00;;;;;16.40;87.66;99411.97;6285426;20;2748347;-48
2022/09/25 12:06:37;;;;;;;;;7.00;5.00;;;;;16.66;86.91;99403.31;6284065;20;2745168;-45
2022/09/25 12:09:24;;;;;;;;;4.00;4.00;;;;;16.43;86.25;99406.28;6287998;20;2745053;-46
2022/09/25 12:12:40;;;;;;;;;24.33;22.67;;;;;16.34;85.50;99404.38;6272801;20;2844028;-46
2022/09/25 12:15:24;;;;;;;;;17.50;14.00;;;;;16.58;86.68;99395.03;6312549;20;2814891;-44
2022/09/25 12:18:28;;;;;;;;;5.60;5.20;;;;;16.56;85.00;99391.59;6309428;20;2740931;-45
2022/09/25 12:21:14;;;;;;;;;20.00;18.00;;;;;16.83;84.90;99389.09;6315958;20;3574366;-59